Island Lookout — WDF6311 — position and weather

sailwx.info

Track history (hours):
 
Tides and Currents Weather Stations Pressure Air Temp Water Temp Dewpoint Dewpoint Depression Visibility Wind Speed Wind Dir Waves Ship Positions

Island Lookout

Owner: Stevens Towing Company Inc., Yonges Island, SC. More information available from US FCC via Universal Licensing System and Coast Guard Vessel Documentation Center.

Last reported at 2018-Feb-24 13:52 UTC. Time now 2018-Feb-25 13:51 UTC.
Position N 36°41' W 076°04'.

Length 22 m; draft 2.9 m.

Type: Towing. MMSI: 367472930.

Date/timePositionNaut miles runAvg speedWind from/ knotsBaromVisibWave heightAir tempDewpointWater temp
2018-Feb-24 13:52N 36°41' W 076°04'2 3.6
2018-Feb-24 13:17N 36°43' W 076°05'2 3.2
2018-Feb-24 12:37N 36°43' W 076°08'4 3.4
2018-Feb-24 11:26N 36°43' W 076°13'2 3.7
2018-Feb-24 10:57N 36°43' W 076°15'0 0.2
2018-Feb-24 10:28N 36°43' W 076°15'2 3.7
2018-Feb-24 09:54N 36°44' W 076°17'1 3.3
2018-Feb-24 09:30N 36°45' W 076°18'0 0.0
2018-Feb-24 09:01N 36°45' W 076°18'0 0.0
2018-Feb-24 08:30N 36°45' W 076°18'0 0.0
2018-Feb-24 08:00N 36°45' W 076°18'0 0.0
2018-Feb-24 07:30N 36°45' W 076°18'0 0.0
2018-Feb-24 07:00N 36°45' W 076°18'0 0.0
2018-Feb-24 06:30N 36°45' W 076°18'0 0.0
2018-Feb-24 06:00N 36°45' W 076°18'0 0.0
2018-Feb-24 05:30N 36°45' W 076°18'0 0.0
2018-Feb-24 05:00N 36°45' W 076°18'0 0.0
2018-Feb-24 04:30N 36°45' W 076°18'0 0.0
2018-Feb-24 04:00N 36°45' W 076°18'0 0.0
2018-Feb-24 03:30N 36°45' W 076°18'0 0.0
2018-Feb-24 03:00N 36°45' W 076°18'1 1.7
2018-Feb-24 02:30N 36°46' W 076°18'1 2.6
2018-Feb-24 02:00N 36°47' W 076°18'3 5.5
2018-Feb-24 01:30N 36°50' W 076°18'3 5.7
2018-Feb-24 01:00N 36°52' W 076°20'3 5.8
2018-Feb-24 00:30N 36°55' W 076°20'2 4.7
2018-Feb-24 00:00N 36°58' W 076°21'2 3.6
2018-Feb-23 23:28N 36°59' W 076°19'2 4.3
2018-Feb-23 22:59N 37°00' W 076°17'2 4.6
2018-Feb-23 22:29N 37°02' W 076°15'2 4.7
2018-Feb-23 21:58N 37°04' W 076°14'3 5.3
2018-Feb-23 21:21N 37°07' W 076°13'2 5.5
2018-Feb-23 21:00N 37°09' W 076°13'3 5.3
2018-Feb-23 20:26N 37°12' W 076°12'2 5.2
2018-Feb-23 19:59N 37°15' W 076°11'90 6.0
2018-Feb-23 04:55N 38°44' W 076°27'3 6.4
2018-Feb-23 04:30N 38°46' W 076°27'3 6.3
2018-Feb-23 04:00N 38°49' W 076°26'3 6.3
2018-Feb-23 03:30N 38°52' W 076°26'3 6.3
2018-Feb-23 03:00N 38°55' W 076°25'3 6.4
2018-Feb-23 02:29N 38°59' W 076°24'3 6.2
2018-Feb-23 02:00N 39°01' W 076°23'3 5.8
2018-Feb-23 01:30N 39°04' W 076°24'3 5.8
2018-Feb-23 01:00N 39°07' W 076°24'3 5.3
2018-Feb-23 00:21N 39°10' W 076°26'2 5.1
2018-Feb-23 00:00N 39°11' W 076°28'3 5.5
2018-Feb-22 23:29N 39°12' W 076°31'3 5.6
2018-Feb-22 23:00N 39°14' W 076°33'2 4.5
2018-Feb-22 22:30N 39°16' W 076°35'0 0.3
2018-Feb-22 22:00N 39°16' W 076°35'0 0.0
2018-Feb-22 21:30N 39°16' W 076°35'0 0.0
2018-Feb-22 21:00N 39°16' W 076°35'0 0.0
2018-Feb-22 20:30N 39°16' W 076°35'0 0.0
2018-Feb-22 20:00N 39°16' W 076°35'0 0.0
2018-Feb-22 19:30N 39°16' W 076°35'0 0.0
2018-Feb-22 19:00N 39°16' W 076°35'0 0.0
2018-Feb-22 18:30N 39°16' W 076°35'0 0.0
2018-Feb-22 18:00N 39°16' W 076°35'0 0.0
2018-Feb-22 17:30N 39°16' W 076°35'0 0.0
2018-Feb-22 17:00N 39°16' W 076°35'0 0.0
2018-Feb-22 16:30N 39°16' W 076°35'0 0.0
2018-Feb-22 16:00N 39°16' W 076°35'0 0.0
2018-Feb-22 15:30N 39°16' W 076°35'0 0.0
2018-Feb-22 15:00N 39°16' W 076°35'0 0.0
2018-Feb-22 14:30N 39°16' W 076°35'0 0.0
2018-Feb-22 14:00N 39°16' W 076°35'2 4.0
2018-Feb-22 13:30N 39°15' W 076°34'1 2.1
2018-Feb-22 13:00N 39°14' W 076°34'0 0.0
2018-Feb-22 12:30N 39°14' W 076°34'0 0.0
2018-Feb-22 12:00N 39°14' W 076°34'1 1.8
2018-Feb-22 11:30N 39°14' W 076°33'2 4.7
2018-Feb-22 11:00N 39°16' W 076°35'0 0.0
2018-Feb-22 10:30N 39°16' W 076°35'0 0.9
2018-Feb-22 10:00N 39°17' W 076°35'0 0.9
2018-Feb-22 09:30N 39°16' W 076°35'0 0.0
2018-Feb-22 09:00N 39°16' W 076°35'0 0.0
2018-Feb-22 08:30N 39°16' W 076°35'0 0.0
2018-Feb-22 08:00N 39°16' W 076°35'0 0.0
2018-Feb-22 07:29N 39°16' W 076°35'0 0.0
2018-Feb-22 07:00N 39°16' W 076°35'0 0.0
2018-Feb-22 06:30N 39°16' W 076°35'0 0.0
2018-Feb-22 06:00N 39°16' W 076°35'0 0.0
2018-Feb-22 05:30N 39°16' W 076°35'0 0.0
2018-Feb-22 05:00N 39°16' W 076°35'0 0.0
2018-Feb-22 04:31N 39°16' W 076°35'0 0.0
2018-Feb-22 04:00N 39°16' W 076°35'0 0.0
2018-Feb-22 03:30N 39°16' W 076°35'0 0.0
2018-Feb-22 03:00N 39°16' W 076°35'0 0.0
2018-Feb-22 02:30N 39°16' W 076°35'0 0.0
2018-Feb-22 01:59N 39°16' W 076°35'0 0.0
2018-Feb-22 01:30N 39°16' W 076°35'0 0.0
2018-Feb-22 01:00N 39°16' W 076°35'0 0.0
2018-Feb-22 00:30N 39°16' W 076°35'1 2.2
2018-Feb-22 00:00N 39°15' W 076°34'4 7.5
2018-Feb-21 23:30N 39°13' W 076°31'4 7.4
2018-Feb-21 23:00N 39°11' W 076°27'4 7.2
2018-Feb-21 22:30N 39°08' W 076°24'3 6.8
2018-Feb-21 22:00N 39°05' W 076°24'3 6.6
2018-Feb-21 21:30N 39°01' W 076°23'3 6.1
2018-Feb-21 21:00N 38°58' W 076°23'3 6.8
2018-Feb-21 20:30N 38°55' W 076°25'3 6.5
2018-Feb-21 20:00N 38°52' W 076°26'3 6.6
2018-Feb-21 19:30N 38°49' W 076°27'3 6.8
2018-Feb-21 19:00N 38°45' W 076°28'4 6.9
2018-Feb-21 18:28N 38°42' W 076°28'91 7.1
2018-Feb-21 05:42N 37°12' W 076°11'2 7.7
2018-Feb-21 05:29N 37°11' W 076°11'4 7.7
2018-Feb-21 04:58N 37°07' W 076°12'4 7.6
2018-Feb-21 04:28N 37°03' W 076°14'3 6.9
2018-Feb-21 03:58N 37°00' W 076°17'3 5.9
2018-Feb-21 03:27N 36°59' W 076°20'3 6.7
2018-Feb-21 02:59N 36°55' W 076°20'3 6.6
2018-Feb-21 02:30N 36°52' W 076°20'3 5.9
2018-Feb-21 02:00N 36°50' W 076°18'3 6.4
2018-Feb-21 01:30N 36°47' W 076°18'2 3.9
2018-Feb-21 01:00N 36°45' W 076°18'2 5.0
2018-Feb-21 00:30N 36°44' W 076°15'1 2.0
2018-Feb-20 23:58N 36°43' W 076°14'0 0.0
2018-Feb-20 23:30N 36°43' W 076°14'8 2.7
2018-Feb-20 20:29N 36°41' W 076°04'  
2018-Feb-18 02:44N 36°43' W 076°13'1 4.0
2018-Feb-18 02:29N 36°43' W 076°14'1 1.5
2018-Feb-18 01:54N 36°43' W 076°15'1 3.5
2018-Feb-18 01:30N 36°44' W 076°17'2 3.5
2018-Feb-18 01:00N 36°45' W 076°18'2 3.8
2018-Feb-18 00:30N 36°47' W 076°18'3 6.0
2018-Feb-18 00:00N 36°50' W 076°18'3 6.3
2018-Feb-17 23:30N 36°53' W 076°20'3 6.7
2018-Feb-17 23:00N 36°56' W 076°20'3 5.7
2018-Feb-17 22:30N 36°59' W 076°20'3 4.9
2018-Feb-17 21:59N 37°00' W 076°17'2 4.8
2018-Feb-17 21:29N 37°02' W 076°15'3 5.6
2018-Feb-17 20:58N 37°05' W 076°13'3 6.3
2018-Feb-17 20:28N 37°08' W 076°13'3 6.2
2018-Feb-17 19:57N 37°11' W 076°12'3 5.8
2018-Feb-17 19:27N 37°14' W 076°12'3 5.7
2018-Feb-17 19:00N 37°16' W 076°12'88 6.0
2018-Feb-17 04:16N 38°44' W 076°28'2 7.2
2018-Feb-17 04:00N 38°46' W 076°28'4 7.2
2018-Feb-17 03:30N 38°49' W 076°26'4 7.2
2018-Feb-17 03:00N 38°53' W 076°25'4 7.3
2018-Feb-17 02:30N 38°56' W 076°24'4 7.1
2018-Feb-17 02:00N 38°60' W 076°23'3 6.7
2018-Feb-17 01:29N 39°03' W 076°23'3 6.5
2018-Feb-17 01:00N 39°06' W 076°24'3 6.0
2018-Feb-17 00:30N 39°09' W 076°25'3 5.8
2018-Feb-17 00:00N 39°11' W 076°27'2 4.1
2018-Feb-16 23:30N 39°13' W 076°29'0 0.0
2018-Feb-16 23:00N 39°13' W 076°29'0 0.0
2018-Feb-16 22:30N 39°13' W 076°29'0 0.0
2018-Feb-16 22:00N 39°13' W 076°29'0 0.0
2018-Feb-16 21:30N 39°13' W 076°29'0 0.0
2018-Feb-16 21:00N 39°13' W 076°29'0 0.0
2018-Feb-16 20:31N 39°13' W 076°29'0 0.0
2018-Feb-16 20:00N 39°13' W 076°29'0 0.0
2018-Feb-16 19:30N 39°13' W 076°29'0 0.0
2018-Feb-16 19:00N 39°13' W 076°29'0 0.0
2018-Feb-16 18:30N 39°13' W 076°29'0 0.0
2018-Feb-16 18:00N 39°13' W 076°29'0 0.0
2018-Feb-16 17:30N 39°13' W 076°29'0 0.0
2018-Feb-16 16:59N 39°13' W 076°29'0 0.0
2018-Feb-16 16:30N 39°13' W 076°29'1 2.7
2018-Feb-16 16:00N 39°12' W 076°30'3 6.2
2018-Feb-16 15:30N 39°14' W 076°34'0 0.0
2018-Feb-16 15:00N 39°14' W 076°34'0 0.0
2018-Feb-16 14:30N 39°14' W 076°34'0 0.0
2018-Feb-16 14:00N 39°14' W 076°34'1 2.4
2018-Feb-16 13:31N 39°13' W 076°33'3 5.8
2018-Feb-16 13:00N 39°13' W 076°29'0 0.1
2018-Feb-16 12:30N 39°13' W 076°29'0 0.0
2018-Feb-16 12:00N 39°13' W 076°29'0 0.8
2018-Feb-16 11:29N 39°12' W 076°29'1 2.4
2018-Feb-16 11:00N 39°13' W 076°30'0 0.5
2018-Feb-16 10:30N 39°13' W 076°30'0 0.0
2018-Feb-16 10:00N 39°13' W 076°30'0 0.1
2018-Feb-16 09:30N 39°13' W 076°30'3 6.1
2018-Feb-16 09:00N 39°15' W 076°33'3 3.1
2018-Feb-16 08:05N 39°17' W 076°36'0 0.0
2018-Feb-16 07:57N 39°17' W 076°36'0 0.0
2018-Feb-16 07:29N 39°17' W 076°36'0 0.0
2018-Feb-16 07:00N 39°17' W 076°36'0 0.0
2018-Feb-16 06:28N 39°17' W 076°36'0 0.0
2018-Feb-16 05:59N 39°17' W 076°36'0 0.0
2018-Feb-16 05:30N 39°17' W 076°36'0 0.0
2018-Feb-16 05:00N 39°17' W 076°36'0 0.0
2018-Feb-16 04:30N 39°17' W 076°36'0 0.0
2018-Feb-16 04:00N 39°17' W 076°36'0 0.0
2018-Feb-16 03:30N 39°17' W 076°36'0 0.0
2018-Feb-16 03:00N 39°17' W 076°36'0 0.0
2018-Feb-16 02:30N 39°17' W 076°36'0 0.0
2018-Feb-16 02:00N 39°17' W 076°36'0 0.0
2018-Feb-16 01:30N 39°17' W 076°36'0 0.0
2018-Feb-16 01:00N 39°17' W 076°36'0 0.0
2018-Feb-16 00:30N 39°17' W 076°36'0 0.0
2018-Feb-16 00:00N 39°17' W 076°36'0 0.0
2018-Feb-15 23:31N 39°17' W 076°36'0 0.0
2018-Feb-15 23:00N 39°17' W 076°36'0 0.0
2018-Feb-15 22:30N 39°17' W 076°36'0 0.0
2018-Feb-15 22:00N 39°17' W 076°36'0 0.0
2018-Feb-15 21:30N 39°17' W 076°36'0 0.0
2018-Feb-15 21:00N 39°17' W 076°36'0 0.0
2018-Feb-15 20:26N 39°17' W 076°36'0 0.0
2018-Feb-15 20:01N 39°17' W 076°36'0 0.0
2018-Feb-15 19:30N 39°17' W 076°36'0 0.0
2018-Feb-15 19:00N 39°17' W 076°36'0 0.0
2018-Feb-15 18:30N 39°17' W 076°36'0 0.0
2018-Feb-15 18:00N 39°17' W 076°36'0 0.0
2018-Feb-15 17:30N 39°17' W 076°36'0 0.0
2018-Feb-15 17:00N 39°17' W 076°36'0 0.0
2018-Feb-15 16:30N 39°17' W 076°36'0 0.0
2018-Feb-15 16:00N 39°17' W 076°36'0 0.0
2018-Feb-15 15:30N 39°17' W 076°36'0 0.0
2018-Feb-15 15:00N 39°17' W 076°36'0 0.0
2018-Feb-15 14:30N 39°17' W 076°36'0 0.0
2018-Feb-15 14:00N 39°17' W 076°36'0 0.0
2018-Feb-15 13:30N 39°17' W 076°36'0 0.0
2018-Feb-15 13:00N 39°17' W 076°36'0 0.0
2018-Feb-15 12:30N 39°17' W 076°36'0 0.0
2018-Feb-15 12:00N 39°17' W 076°36'0 0.0
2018-Feb-15 11:31N 39°17' W 076°36'0 0.0
2018-Feb-15 11:00N 39°17' W 076°36'0 0.0
2018-Feb-15 10:30N 39°17' W 076°36'0 0.0
2018-Feb-15 10:00N 39°17' W 076°36'0 0.0
2018-Feb-15 09:30N 39°17' W 076°36'0 0.0
2018-Feb-15 09:00N 39°17' W 076°36'0 0.0
2018-Feb-15 08:30N 39°17' W 076°36'0 0.0
2018-Feb-15 08:00N 39°17' W 076°36'0 0.0
2018-Feb-15 07:30N 39°17' W 076°36'2 4.0
2018-Feb-15 07:00N 39°15' W 076°34'4 7.4
2018-Feb-15 06:30N 39°13' W 076°30'0 0.2
2018-Feb-15 06:00N 39°13' W 076°30'3 5.0
2018-Feb-15 05:30N 39°11' W 076°28'3 6.8
2018-Feb-15 05:00N 39°09' W 076°25'3 6.3
2018-Feb-15 04:29N 39°06' W 076°24'3 6.6
2018-Feb-15 04:00N 39°03' W 076°23'3 6.0
2018-Feb-15 03:30N 38°60' W 076°23'3 6.8
2018-Feb-15 03:00N 38°56' W 076°24'3 6.8
2018-Feb-15 02:31N 38°53' W 076°25'3 6.9
2018-Feb-15 02:00N 38°50' W 076°26'4 6.9
2018-Feb-15 01:22N 38°45' W 076°27'37 7.2
2018-Feb-14 20:15N 38°09' W 076°17'  
Track history (hours):
 
Tides and Currents Weather Stations Pressure Air Temp Water Temp Dewpoint Dewpoint Depression Visibility Wind Speed Wind Dir Waves Ship Positions

Island Lookout

Owner: Stevens Towing Company Inc., Yonges Island, SC. More information available from US FCC via Universal Licensing System and Coast Guard Vessel Documentation Center.

Last reported at 2018-Feb-24 13:52 UTC. Time now 2018-Feb-25 13:51 UTC.
Position N 36°41' W 076°04'.

Length 22 m; draft 2.9 m.

Type: Towing. MMSI: 367472930.

Date/timePositionNaut miles runAvg speedWind from/ knotsBaromVisibWave heightAir tempDewpointWater temp
2018-Feb-24 13:52N 36°41' W 076°04'2 3.6
2018-Feb-24 13:17N 36°43' W 076°05'2 3.2
2018-Feb-24 12:37N 36°43' W 076°08'4 3.4
2018-Feb-24 11:26N 36°43' W 076°13'2 3.7
2018-Feb-24 10:57N 36°43' W 076°15'0 0.2
2018-Feb-24 10:28N 36°43' W 076°15'2 3.7
2018-Feb-24 09:54N 36°44' W 076°17'1 3.3
2018-Feb-24 09:30N 36°45' W 076°18'0 0.0
2018-Feb-24 09:01N 36°45' W 076°18'0 0.0
2018-Feb-24 08:30N 36°45' W 076°18'0 0.0
2018-Feb-24 08:00N 36°45' W 076°18'0 0.0
2018-Feb-24 07:30N 36°45' W 076°18'0 0.0
2018-Feb-24 07:00N 36°45' W 076°18'0 0.0
2018-Feb-24 06:30N 36°45' W 076°18'0 0.0
2018-Feb-24 06:00N 36°45' W 076°18'0 0.0
2018-Feb-24 05:30N 36°45' W 076°18'0 0.0
2018-Feb-24 05:00N 36°45' W 076°18'0 0.0
2018-Feb-24 04:30N 36°45' W 076°18'0 0.0
2018-Feb-24 04:00N 36°45' W 076°18'0 0.0
2018-Feb-24 03:30N 36°45' W 076°18'0 0.0
2018-Feb-24 03:00N 36°45' W 076°18'1 1.7
2018-Feb-24 02:30N 36°46' W 076°18'1 2.6
2018-Feb-24 02:00N 36°47' W 076°18'3 5.5
2018-Feb-24 01:30N 36°50' W 076°18'3 5.7
2018-Feb-24 01:00N 36°52' W 076°20'3 5.8
2018-Feb-24 00:30N 36°55' W 076°20'2 4.7
2018-Feb-24 00:00N 36°58' W 076°21'2 3.6
2018-Feb-23 23:28N 36°59' W 076°19'2 4.3
2018-Feb-23 22:59N 37°00' W 076°17'2 4.6
2018-Feb-23 22:29N 37°02' W 076°15'2 4.7
2018-Feb-23 21:58N 37°04' W 076°14'3 5.3
2018-Feb-23 21:21N 37°07' W 076°13'2 5.5
2018-Feb-23 21:00N 37°09' W 076°13'3 5.3
2018-Feb-23 20:26N 37°12' W 076°12'2 5.2
2018-Feb-23 19:59N 37°15' W 076°11'90 6.0
2018-Feb-23 04:55N 38°44' W 076°27'3 6.4
2018-Feb-23 04:30N 38°46' W 076°27'3 6.3
2018-Feb-23 04:00N 38°49' W 076°26'3 6.3
2018-Feb-23 03:30N 38°52' W 076°26'3 6.3
2018-Feb-23 03:00N 38°55' W 076°25'3 6.4
2018-Feb-23 02:29N 38°59' W 076°24'3 6.2
2018-Feb-23 02:00N 39°01' W 076°23'3 5.8
2018-Feb-23 01:30N 39°04' W 076°24'3 5.8
2018-Feb-23 01:00N 39°07' W 076°24'3 5.3
2018-Feb-23 00:21N 39°10' W 076°26'2 5.1
2018-Feb-23 00:00N 39°11' W 076°28'3 5.5
2018-Feb-22 23:29N 39°12' W 076°31'3 5.6
2018-Feb-22 23:00N 39°14' W 076°33'2 4.5
2018-Feb-22 22:30N 39°16' W 076°35'0 0.3
2018-Feb-22 22:00N 39°16' W 076°35'0 0.0
2018-Feb-22 21:30N 39°16' W 076°35'0 0.0
2018-Feb-22 21:00N 39°16' W 076°35'0 0.0
2018-Feb-22 20:30N 39°16' W 076°35'0 0.0
2018-Feb-22 20:00N 39°16' W 076°35'0 0.0
2018-Feb-22 19:30N 39°16' W 076°35'0 0.0
2018-Feb-22 19:00N 39°16' W 076°35'0 0.0
2018-Feb-22 18:30N 39°16' W 076°35'0 0.0
2018-Feb-22 18:00N 39°16' W 076°35'0 0.0
2018-Feb-22 17:30N 39°16' W 076°35'0 0.0
2018-Feb-22 17:00N 39°16' W 076°35'0 0.0
2018-Feb-22 16:30N 39°16' W 076°35'0 0.0
2018-Feb-22 16:00N 39°16' W 076°35'0 0.0
2018-Feb-22 15:30N 39°16' W 076°35'0 0.0
2018-Feb-22 15:00N 39°16' W 076°35'0 0.0
2018-Feb-22 14:30N 39°16' W 076°35'0 0.0
2018-Feb-22 14:00N 39°16' W 076°35'2 4.0
2018-Feb-22 13:30N 39°15' W 076°34'1 2.1
2018-Feb-22 13:00N 39°14' W 076°34'0 0.0
2018-Feb-22 12:30N 39°14' W 076°34'0 0.0
2018-Feb-22 12:00N 39°14' W 076°34'1 1.8
2018-Feb-22 11:30N 39°14' W 076°33'2 4.7
2018-Feb-22 11:00N 39°16' W 076°35'0 0.0
2018-Feb-22 10:30N 39°16' W 076°35'0 0.9
2018-Feb-22 10:00N 39°17' W 076°35'0 0.9
2018-Feb-22 09:30N 39°16' W 076°35'0 0.0
2018-Feb-22 09:00N 39°16' W 076°35'0 0.0
2018-Feb-22 08:30N 39°16' W 076°35'0 0.0
2018-Feb-22 08:00N 39°16' W 076°35'0 0.0
2018-Feb-22 07:29N 39°16' W 076°35'0 0.0
2018-Feb-22 07:00N 39°16' W 076°35'0 0.0
2018-Feb-22 06:30N 39°16' W 076°35'0 0.0
2018-Feb-22 06:00N 39°16' W 076°35'0 0.0
2018-Feb-22 05:30N 39°16' W 076°35'0 0.0
2018-Feb-22 05:00N 39°16' W 076°35'0 0.0
2018-Feb-22 04:31N 39°16' W 076°35'0 0.0
2018-Feb-22 04:00N 39°16' W 076°35'0 0.0
2018-Feb-22 03:30N 39°16' W 076°35'0 0.0
2018-Feb-22 03:00N 39°16' W 076°35'0 0.0
2018-Feb-22 02:30N 39°16' W 076°35'0 0.0
2018-Feb-22 01:59N 39°16' W 076°35'0 0.0
2018-Feb-22 01:30N 39°16' W 076°35'0 0.0
2018-Feb-22 01:00N 39°16' W 076°35'0 0.0
2018-Feb-22 00:30N 39°16' W 076°35'1 2.2
2018-Feb-22 00:00N 39°15' W 076°34'4 7.5
2018-Feb-21 23:30N 39°13' W 076°31'4 7.4
2018-Feb-21 23:00N 39°11' W 076°27'4 7.2
2018-Feb-21 22:30N 39°08' W 076°24'3 6.8
2018-Feb-21 22:00N 39°05' W 076°24'3 6.6
2018-Feb-21 21:30N 39°01' W 076°23'3 6.1
2018-Feb-21 21:00N 38°58' W 076°23'3 6.8
2018-Feb-21 20:30N 38°55' W 076°25'3 6.5
2018-Feb-21 20:00N 38°52' W 076°26'3 6.6
2018-Feb-21 19:30N 38°49' W 076°27'3 6.8
2018-Feb-21 19:00N 38°45' W 076°28'4 6.9
2018-Feb-21 18:28N 38°42' W 076°28'91 7.1
2018-Feb-21 05:42N 37°12' W 076°11'2 7.7
2018-Feb-21 05:29N 37°11' W 076°11'4 7.7
2018-Feb-21 04:58N 37°07' W 076°12'4 7.6
2018-Feb-21 04:28N 37°03' W 076°14'3 6.9
2018-Feb-21 03:58N 37°00' W 076°17'3 5.9
2018-Feb-21 03:27N 36°59' W 076°20'3 6.7
2018-Feb-21 02:59N 36°55' W 076°20'3 6.6
2018-Feb-21 02:30N 36°52' W 076°20'3 5.9
2018-Feb-21 02:00N 36°50' W 076°18'3 6.4
2018-Feb-21 01:30N 36°47' W 076°18'2 3.9
2018-Feb-21 01:00N 36°45' W 076°18'2 5.0
2018-Feb-21 00:30N 36°44' W 076°15'1 2.0
2018-Feb-20 23:58N 36°43' W 076°14'0 0.0
2018-Feb-20 23:30N 36°43' W 076°14'8 2.7
2018-Feb-20 20:29N 36°41' W 076°04'  
2018-Feb-18 02:44N 36°43' W 076°13'1 4.0
2018-Feb-18 02:29N 36°43' W 076°14'1 1.5
2018-Feb-18 01:54N 36°43' W 076°15'1 3.5
2018-Feb-18 01:30N 36°44' W 076°17'2 3.5
2018-Feb-18 01:00N 36°45' W 076°18'2 3.8
2018-Feb-18 00:30N 36°47' W 076°18'3 6.0
2018-Feb-18 00:00N 36°50' W 076°18'3 6.3
2018-Feb-17 23:30N 36°53' W 076°20'3 6.7
2018-Feb-17 23:00N 36°56' W 076°20'3 5.7
2018-Feb-17 22:30N 36°59' W 076°20'3 4.9
2018-Feb-17 21:59N 37°00' W 076°17'2 4.8
2018-Feb-17 21:29N 37°02' W 076°15'3 5.6
2018-Feb-17 20:58N 37°05' W 076°13'3 6.3
2018-Feb-17 20:28N 37°08' W 076°13'3 6.2
2018-Feb-17 19:57N 37°11' W 076°12'3 5.8
2018-Feb-17 19:27N 37°14' W 076°12'3 5.7
2018-Feb-17 19:00N 37°16' W 076°12'88 6.0
2018-Feb-17 04:16N 38°44' W 076°28'2 7.2
2018-Feb-17 04:00N 38°46' W 076°28'4 7.2
2018-Feb-17 03:30N 38°49' W 076°26'4 7.2
2018-Feb-17 03:00N 38°53' W 076°25'4 7.3
2018-Feb-17 02:30N 38°56' W 076°24'4 7.1
2018-Feb-17 02:00N 38°60' W 076°23'3 6.7
2018-Feb-17 01:29N 39°03' W 076°23'3 6.5
2018-Feb-17 01:00N 39°06' W 076°24'3 6.0
2018-Feb-17 00:30N 39°09' W 076°25'3 5.8
2018-Feb-17 00:00N 39°11' W 076°27'2 4.1
2018-Feb-16 23:30N 39°13' W 076°29'0 0.0
2018-Feb-16 23:00N 39°13' W 076°29'0 0.0
2018-Feb-16 22:30N 39°13' W 076°29'0 0.0
2018-Feb-16 22:00N 39°13' W 076°29'0 0.0
2018-Feb-16 21:30N 39°13' W 076°29'0 0.0
2018-Feb-16 21:00N 39°13' W 076°29'0 0.0
2018-Feb-16 20:31N 39°13' W 076°29'0 0.0
2018-Feb-16 20:00N 39°13' W 076°29'0 0.0
2018-Feb-16 19:30N 39°13' W 076°29'0 0.0
2018-Feb-16 19:00N 39°13' W 076°29'0 0.0
2018-Feb-16 18:30N 39°13' W 076°29'0 0.0
2018-Feb-16 18:00N 39°13' W 076°29'0 0.0
2018-Feb-16 17:30N 39°13' W 076°29'0 0.0
2018-Feb-16 16:59N 39°13' W 076°29'0 0.0
2018-Feb-16 16:30N 39°13' W 076°29'1 2.7
2018-Feb-16 16:00N 39°12' W 076°30'3 6.2
2018-Feb-16 15:30N 39°14' W 076°34'0 0.0
2018-Feb-16 15:00N 39°14' W 076°34'0 0.0
2018-Feb-16 14:30N 39°14' W 076°34'0 0.0
2018-Feb-16 14:00N 39°14' W 076°34'1 2.4
2018-Feb-16 13:31N 39°13' W 076°33'3 5.8
2018-Feb-16 13:00N 39°13' W 076°29'0 0.1
2018-Feb-16 12:30N 39°13' W 076°29'0 0.0
2018-Feb-16 12:00N 39°13' W 076°29'0 0.8
2018-Feb-16 11:29N 39°12' W 076°29'1 2.4
2018-Feb-16 11:00N 39°13' W 076°30'0 0.5
2018-Feb-16 10:30N 39°13' W 076°30'0 0.0
2018-Feb-16 10:00N 39°13' W 076°30'0 0.1
2018-Feb-16 09:30N 39°13' W 076°30'3 6.1
2018-Feb-16 09:00N 39°15' W 076°33'3 3.1
2018-Feb-16 08:05N 39°17' W 076°36'0 0.0
2018-Feb-16 07:57N 39°17' W 076°36'0 0.0
2018-Feb-16 07:29N 39°17' W 076°36'0 0.0
2018-Feb-16 07:00N 39°17' W 076°36'0 0.0
2018-Feb-16 06:28N 39°17' W 076°36'0 0.0
2018-Feb-16 05:59N 39°17' W 076°36'0 0.0
2018-Feb-16 05:30N 39°17' W 076°36'0 0.0
2018-Feb-16 05:00N 39°17' W 076°36'0 0.0
2018-Feb-16 04:30N 39°17' W 076°36'0 0.0
2018-Feb-16 04:00N 39°17' W 076°36'0 0.0
2018-Feb-16 03:30N 39°17' W 076°36'0 0.0
2018-Feb-16 03:00N 39°17' W 076°36'0 0.0
2018-Feb-16 02:30N 39°17' W 076°36'0 0.0
2018-Feb-16 02:00N 39°17' W 076°36'0 0.0
2018-Feb-16 01:30N 39°17' W 076°36'0 0.0
2018-Feb-16 01:00N 39°17' W 076°36'0 0.0
2018-Feb-16 00:30N 39°17' W 076°36'0 0.0
2018-Feb-16 00:00N 39°17' W 076°36'0 0.0
2018-Feb-15 23:31N 39°17' W 076°36'0 0.0
2018-Feb-15 23:00N 39°17' W 076°36'0 0.0
2018-Feb-15 22:30N 39°17' W 076°36'0 0.0
2018-Feb-15 22:00N 39°17' W 076°36'0 0.0
2018-Feb-15 21:30N 39°17' W 076°36'0 0.0
2018-Feb-15 21:00N 39°17' W 076°36'0 0.0
2018-Feb-15 20:26N 39°17' W 076°36'0 0.0
2018-Feb-15 20:01N 39°17' W 076°36'0 0.0
2018-Feb-15 19:30N 39°17' W 076°36'0 0.0
2018-Feb-15 19:00N 39°17' W 076°36'0 0.0
2018-Feb-15 18:30N 39°17' W 076°36'0 0.0
2018-Feb-15 18:00N 39°17' W 076°36'0 0.0
2018-Feb-15 17:30N 39°17' W 076°36'0 0.0
2018-Feb-15 17:00N 39°17' W 076°36'0 0.0
2018-Feb-15 16:30N 39°17' W 076°36'0 0.0
2018-Feb-15 16:00N 39°17' W 076°36'0 0.0
2018-Feb-15 15:30N 39°17' W 076°36'0 0.0
2018-Feb-15 15:00N 39°17' W 076°36'0 0.0
2018-Feb-15 14:30N 39°17' W 076°36'0 0.0
2018-Feb-15 14:00N 39°17' W 076°36'0 0.0
2018-Feb-15 13:30N 39°17' W 076°36'0 0.0
2018-Feb-15 13:00N 39°17' W 076°36'0 0.0
2018-Feb-15 12:30N 39°17' W 076°36'0 0.0
2018-Feb-15 12:00N 39°17' W 076°36'0 0.0
2018-Feb-15 11:31N 39°17' W 076°36'0 0.0
2018-Feb-15 11:00N 39°17' W 076°36'0 0.0
2018-Feb-15 10:30N 39°17' W 076°36'0 0.0
2018-Feb-15 10:00N 39°17' W 076°36'0 0.0
2018-Feb-15 09:30N 39°17' W 076°36'0 0.0
2018-Feb-15 09:00N 39°17' W 076°36'0 0.0
2018-Feb-15 08:30N 39°17' W 076°36'0 0.0
2018-Feb-15 08:00N 39°17' W 076°36'0 0.0
2018-Feb-15 07:30N 39°17' W 076°36'2 4.0
2018-Feb-15 07:00N 39°15' W 076°34'4 7.4
2018-Feb-15 06:30N 39°13' W 076°30'0 0.2
2018-Feb-15 06:00N 39°13' W 076°30'3 5.0
2018-Feb-15 05:30N 39°11' W 076°28'3 6.8
2018-Feb-15 05:00N 39°09' W 076°25'3 6.3
2018-Feb-15 04:29N 39°06' W 076°24'3 6.6
2018-Feb-15 04:00N 39°03' W 076°23'3 6.0
2018-Feb-15 03:30N 38°60' W 076°23'3 6.8
2018-Feb-15 03:00N 38°56' W 076°24'3 6.8
2018-Feb-15 02:31N 38°53' W 076°25'3 6.9
2018-Feb-15 02:00N 38°50' W 076°26'4 6.9
2018-Feb-15 01:22N 38°45' W 076°27'37 7.2
2018-Feb-14 20:15N 38°09' W 076°17'  

Dump ship's entire track history